createdAt,value
2019-05-03T00:02:24.247Z,13.40
2019-05-03T00:04:59.811Z,14.30
2019-05-03T00:07:31.656Z,15.97
2019-05-03T00:10:02.852Z,16.20
2019-05-03T00:12:33.018Z,17.40
2019-05-03T00:15:14.069Z,14.87
2019-05-03T00:17:43.748Z,20.03
2019-05-03T00:20:14.082Z,21.17
2019-05-03T00:22:44.112Z,22.10
2019-05-03T00:25:14.206Z,23.50
2019-05-03T00:27:43.942Z,27.30
2019-05-03T00:30:14.210Z,21.83
2019-05-03T00:32:44.542Z,30.13
2019-05-03T00:35:19.474Z,24.63
2019-05-03T00:37:52.608Z,30.07
2019-05-03T00:40:29.027Z,28.37
2019-05-03T00:42:59.043Z,25.17
2019-05-03T00:45:28.799Z,22.93
2019-05-03T00:47:58.623Z,26.73
2019-05-03T00:50:28.378Z,24.33
2019-05-03T00:52:58.067Z,24.23
2019-05-03T00:55:27.886Z,25.83
2019-05-03T00:57:57.649Z,26.93
2019-05-03T01:00:27.475Z,27.33
2019-05-03T01:02:57.327Z,28.70
2019-05-03T01:05:27.294Z,25.37
2019-05-03T01:07:57.440Z,20.63
2019-05-03T01:10:27.183Z,21.57
2019-05-03T01:12:57.147Z,20.10
2019-05-03T01:15:36.220Z,24.27
2019-05-03T01:18:07.847Z,16.70
2019-05-03T01:20:37.671Z,20.60
2019-05-03T01:23:07.486Z,21.17
2019-05-03T01:25:37.251Z,16.90
2019-05-03T01:28:07.315Z,20.60
2019-05-03T01:30:37.207Z,20.23
2019-05-03T01:33:07.286Z,19.57
2019-05-03T01:35:37.451Z,16.43
2019-05-03T01:38:07.532Z,17.27
2019-05-03T01:40:37.269Z,16.40
2019-05-03T01:43:07.163Z,17.13
2019-05-03T01:45:37.067Z,20.20
2019-05-03T01:48:16.702Z,19.10
2019-05-03T01:51:12.442Z,16.83
2019-05-03T01:53:42.262Z,16.90
2019-05-03T01:56:12.091Z,18.50
2019-05-03T01:58:41.909Z,19.70
2019-05-03T02:01:22.141Z,18.97
2019-05-03T02:03:58.661Z,19.77
2019-05-03T02:06:28.425Z,22.00
2019-05-03T02:08:58.521Z,21.37
2019-05-03T02:11:28.618Z,23.70
2019-05-03T02:13:58.692Z,23.37
2019-05-03T02:16:28.366Z,21.17
2019-05-03T02:18:58.493Z,22.73
2019-05-03T02:21:28.570Z,25.83
2019-05-03T02:23:58.413Z,20.30
2019-05-03T02:26:28.246Z,24.87
2019-05-03T02:28:58.346Z,23.80
2019-05-03T02:31:28.739Z,27.40
2019-05-03T02:33:58.845Z,28.27
2019-05-03T02:36:29.188Z,26.20
2019-05-03T02:38:59.299Z,29.33
2019-05-03T02:41:29.579Z,25.50
2019-05-03T02:44:00.055Z,26.10
2019-05-03T02:46:41.713Z,26.13
2019-05-03T02:49:27.963Z,25.27
2019-05-03T02:51:58.023Z,26.00
2019-05-03T02:54:28.143Z,23.87
2019-05-03T02:56:58.608Z,30.17
2019-05-03T02:59:28.989Z,27.20
2019-05-03T03:01:59.061Z,30.80
2019-05-03T03:04:29.159Z,27.67
2019-05-03T03:06:59.676Z,19.60
2019-05-03T03:09:30.274Z,26.33
2019-05-03T03:12:02.276Z,24.37
2019-05-03T03:14:36.267Z,25.23
2019-05-03T03:17:07.352Z,26.20
2019-05-03T03:19:39.466Z,20.83
2019-05-03T03:22:11.537Z,21.30
2019-05-03T03:24:45.757Z,18.23
2019-05-03T03:27:19.666Z,18.87
2019-05-03T03:29:55.171Z,18.83
2019-05-03T03:32:37.988Z,16.20
2019-05-03T03:35:21.239Z,18.20
2019-05-03T03:37:47.906Z,13.77
2019-05-03T03:40:19.550Z,13.97
2019-05-03T03:42:50.987Z,14.77
2019-05-03T03:45:21.103Z,15.00
2019-05-03T03:47:56.220Z,16.30
2019-05-03T03:50:26.179Z,13.40
2019-05-03T03:52:58.895Z,15.30
2019-05-03T03:55:31.713Z,13.90
2019-05-03T03:58:01.883Z,11.60
2019-05-03T04:00:31.914Z,13.20
2019-05-03T04:03:01.798Z,13.53
2019-05-03T04:05:31.780Z,11.40
2019-05-03T04:08:02.356Z,12.30
2019-05-03T04:10:32.400Z,12.23
2019-05-03T04:13:02.256Z,12.10
2019-05-03T04:15:56.162Z,11.73
2019-05-03T04:18:35.943Z,13.17
2019-05-03T04:21:05.598Z,11.57
2019-05-03T04:23:36.028Z,11.27
2019-05-03T04:26:07.020Z,10.70
2019-05-03T04:28:38.312Z,11.03
2019-05-03T04:31:08.151Z,9.17
2019-05-03T04:33:38.010Z,12.33
2019-05-03T04:36:07.847Z,8.47
2019-05-03T04:38:37.780Z,13.43
2019-05-03T04:41:07.614Z,8.07
2019-05-03T04:43:37.431Z,7.80
2019-05-03T04:46:16.361Z,9.40
2019-05-03T04:48:46.218Z,7.70
2019-05-03T04:51:16.801Z,6.83
2019-05-03T04:53:51.911Z,7.70
2019-05-03T04:56:21.723Z,5.67
2019-05-03T04:58:51.532Z,4.90
2019-05-03T05:01:21.339Z,6.13
2019-05-03T05:03:51.071Z,4.30
2019-05-03T05:06:20.820Z,3.73
2019-05-03T05:08:51.870Z,4.40
2019-05-03T05:11:21.710Z,4.30
2019-05-03T05:13:51.795Z,4.73
2019-05-03T05:16:21.615Z,5.40
2019-05-03T05:18:56.051Z,4.80
2019-05-03T05:21:35.414Z,6.67
2019-05-03T05:24:06.121Z,7.50
2019-05-03T05:26:55.033Z,7.17
2019-05-03T05:29:27.236Z,4.90
2019-05-03T05:31:57.380Z,4.43
2019-05-03T05:34:27.431Z,4.40
2019-05-03T05:36:57.270Z,5.30
2019-05-03T05:39:27.078Z,4.97
2019-05-03T05:41:57.115Z,5.27
2019-05-03T05:44:27.222Z,6.60
2019-05-03T05:47:19.784Z,4.83
2019-05-03T05:49:59.447Z,5.20
2019-05-03T05:52:30.576Z,6.13
2019-05-03T05:55:15.583Z,4.20
2019-05-03T05:58:07.453Z,4.83
2019-05-03T06:00:42.146Z,13.77
2019-05-03T06:03:12.596Z,11.87
2019-05-03T06:05:44.628Z,5.50
2019-05-03T06:08:51.880Z,6.10
2019-05-03T06:11:26.827Z,6.60
2019-05-03T06:14:11.039Z,4.80
2019-05-03T06:16:50.375Z,5.40
2019-05-03T06:19:39.715Z,5.90
2019-05-03T06:22:28.937Z,9.97
2019-05-03T06:25:06.542Z,8.10
2019-05-03T06:27:38.205Z,7.00
2019-05-03T06:30:17.026Z,6.10
2019-05-03T06:32:47.274Z,6.13
2019-05-03T06:35:17.442Z,6.10
2019-05-03T06:37:47.559Z,5.63
2019-05-03T06:40:18.455Z,4.87
2019-05-03T06:42:54.661Z,5.60
2019-05-03T06:45:20.642Z,5.17
2019-05-03T06:47:50.987Z,5.40
2019-05-03T06:50:27.539Z,5.83
2019-05-03T06:52:54.681Z,6.80
2019-05-03T06:55:24.740Z,6.43
2019-05-03T06:57:55.002Z,7.10
2019-05-03T07:00:41.856Z,5.60
2019-05-03T07:03:22.494Z,7.20
2019-05-03T07:06:14.983Z,6.97
2019-05-03T07:09:07.659Z,7.37
2019-05-03T07:11:37.873Z,7.60
2019-05-03T07:14:08.063Z,6.23
2019-05-03T07:16:37.836Z,7.17
2019-05-03T07:19:08.007Z,6.17
2019-05-03T07:21:38.171Z,6.30
2019-05-03T07:24:08.070Z,7.60
2019-05-03T07:26:38.703Z,7.63
2019-05-03T07:29:08.499Z,10.30
2019-05-03T07:31:38.462Z,12.00
2019-05-03T07:34:08.308Z,10.90
2019-05-03T07:36:38.066Z,11.23
2019-05-03T07:39:08.386Z,11.63
2019-05-03T07:41:38.307Z,14.27
2019-05-03T07:44:08.196Z,14.97
2019-05-03T07:46:38.119Z,14.60
2019-05-03T07:49:08.082Z,10.30
2019-05-03T07:51:38.596Z,16.87
2019-05-03T07:54:09.003Z,15.17
2019-05-03T07:56:50.132Z,15.27
2019-05-03T07:59:20.593Z,16.37
2019-05-03T08:01:54.597Z,13.60
2019-05-03T08:04:25.522Z,15.30
2019-05-03T08:06:55.759Z,15.30
2019-05-03T08:09:25.902Z,14.57
2019-05-03T08:11:56.126Z,14.67
2019-05-03T08:14:25.997Z,15.87
2019-05-03T08:16:56.340Z,14.90
2019-05-03T08:19:27.075Z,12.90
2019-05-03T08:21:57.422Z,18.93
2019-05-03T08:24:27.546Z,16.47
2019-05-03T08:26:58.033Z,19.47
2019-05-03T08:29:28.012Z,17.10
2019-05-03T08:32:21.847Z,15.13
2019-05-03T08:35:15.279Z,19.83
2019-05-03T08:37:51.087Z,22.33
2019-05-03T08:40:24.424Z,19.33
2019-05-03T08:42:54.966Z,18.30
2019-05-03T08:45:25.579Z,17.17
2019-05-03T08:47:55.645Z,18.07
2019-05-03T08:50:25.798Z,17.53
2019-05-03T08:52:55.985Z,21.43
2019-05-03T08:55:26.257Z,16.90
2019-05-03T08:57:56.193Z,17.77
2019-05-03T09:00:28.163Z,19.27
2019-05-03T09:02:58.936Z,20.20
2019-05-03T09:05:28.811Z,21.60
2019-05-03T09:07:59.239Z,24.57
2019-05-03T09:10:35.198Z,16.50
2019-05-03T09:13:10.399Z,22.07
2019-05-03T09:15:40.796Z,21.13
2019-05-03T09:18:13.925Z,18.10
2019-05-03T09:20:42.272Z,20.00
2019-05-03T09:23:12.123Z,22.50
2019-05-03T09:25:42.062Z,20.90
2019-05-03T09:28:11.882Z,21.17
2019-05-03T09:30:41.843Z,21.07
2019-05-03T09:33:11.693Z,22.20
2019-05-03T09:35:41.561Z,21.77
2019-05-03T09:38:11.452Z,24.23
2019-05-03T09:40:41.887Z,24.93
2019-05-03T09:43:11.777Z,22.07
2019-05-03T09:45:41.938Z,20.57
2019-05-03T09:48:12.133Z,20.87
2019-05-03T09:50:44.958Z,22.73
2019-05-03T09:53:16.936Z,18.63
2019-05-03T09:55:47.133Z,21.27
2019-05-03T09:58:17.319Z,18.40
2019-05-03T10:00:48.750Z,17.93
2019-05-03T10:03:18.599Z,20.10
2019-05-03T10:05:48.479Z,17.57
2019-05-03T10:08:18.337Z,19.30
2019-05-03T10:11:06.135Z,20.57
2019-05-03T10:13:36.507Z,19.13
2019-05-03T10:16:06.801Z,18.73
2019-05-03T10:18:36.953Z,16.90
2019-05-03T10:21:06.972Z,16.97
2019-05-03T10:23:45.395Z,15.27
2019-05-03T10:26:15.411Z,16.83
2019-05-03T10:28:45.811Z,18.93
2019-05-03T10:31:15.722Z,18.27
2019-05-03T10:34:05.775Z,17.93
2019-05-03T10:36:36.230Z,16.37
2019-05-03T10:39:07.365Z,19.43
2019-05-03T10:41:38.035Z,18.60
2019-05-03T10:44:07.901Z,20.03
2019-05-03T10:46:39.070Z,18.87
2019-05-03T10:49:09.047Z,19.10
2019-05-03T10:51:45.214Z,16.70
2019-05-03T10:54:15.535Z,17.37
2019-05-03T10:56:51.150Z,22.90
2019-05-03T10:59:22.407Z,16.57
2019-05-03T11:02:08.269Z,14.40
2019-05-03T11:04:38.195Z,16.00
2019-05-03T11:07:08.119Z,15.17
2019-05-03T11:09:48.535Z,18.37
2019-05-03T11:12:09.935Z,14.40
2019-05-03T11:14:40.077Z,14.83
2019-05-03T11:17:10.242Z,14.87
2019-05-03T11:19:40.572Z,11.87
2019-05-03T11:22:10.710Z,11.60
2019-05-03T11:24:40.928Z,11.57
2019-05-03T11:27:18.675Z,11.53
2019-05-03T11:29:48.606Z,13.97
2019-05-03T11:32:36.215Z,12.30
2019-05-03T11:35:17.110Z,10.17
2019-05-03T11:37:51.296Z,9.23
2019-05-03T11:40:21.724Z,11.93
2019-05-03T11:42:55.345Z,9.47
2019-05-03T11:45:25.644Z,13.53
2019-05-03T11:47:55.785Z,9.20
2019-05-03T11:50:26.053Z,16.00
2019-05-03T11:52:55.917Z,9.10
2019-05-03T11:55:26.809Z,8.90
2019-05-03T11:57:57.521Z,9.77
2019-05-03T12:00:32.653Z,8.70
2019-05-03T12:03:09.166Z,8.77
2019-05-03T12:05:39.831Z,9.60
2019-05-03T12:08:09.712Z,9.60
2019-05-03T12:10:52.860Z,11.90
2019-05-03T12:13:17.663Z,9.27
2019-05-03T12:15:47.530Z,8.73
2019-05-03T12:18:17.902Z,10.13
2019-05-03T12:20:49.320Z,9.10
2019-05-03T12:23:20.664Z,11.03
2019-05-03T12:25:52.133Z,8.93
2019-05-03T12:28:22.575Z,8.60
2019-05-03T12:30:52.495Z,8.73
2019-05-03T12:33:22.396Z,8.47
2019-05-03T12:35:52.355Z,8.20
2019-05-03T12:38:22.611Z,7.80
2019-05-03T12:40:54.263Z,10.53
2019-05-03T12:43:25.664Z,8.67
2019-05-03T12:45:56.235Z,8.63
2019-05-03T12:48:26.503Z,8.53
2019-05-03T12:50:57.885Z,7.23
2019-05-03T12:53:28.176Z,9.07
2019-05-03T12:55:58.636Z,7.43
2019-05-03T12:58:55.155Z,7.83
2019-05-03T13:01:52.072Z,8.33
2019-05-03T13:04:25.434Z,7.90
2019-05-03T13:07:07.953Z,7.90
2019-05-03T13:09:41.769Z,7.77
2019-05-03T13:12:14.762Z,7.63
2019-05-03T13:14:45.475Z,6.57
2019-05-03T13:17:35.434Z,7.63
2019-05-03T13:20:07.415Z,6.23
2019-05-03T13:22:37.362Z,6.47
2019-05-03T13:25:08.752Z,7.50
2019-05-03T13:27:38.726Z,6.30
2019-05-03T13:30:09.840Z,6.03
2019-05-03T13:32:40.107Z,6.10
2019-05-03T13:35:10.547Z,7.13
2019-05-03T13:37:40.919Z,7.27
2019-05-03T13:40:11.967Z,9.03
2019-05-03T13:42:54.254Z,8.27
2019-05-03T13:45:14.122Z,9.73
2019-05-03T13:47:45.434Z,7.07
2019-05-03T13:50:15.751Z,6.53
2019-05-03T13:52:46.579Z,5.60
2019-05-03T13:55:17.985Z,6.00
2019-05-03T13:57:48.666Z,6.83
2019-05-03T14:00:19.121Z,11.40
2019-05-03T14:02:49.243Z,5.67
2019-05-03T14:05:19.444Z,5.63
2019-05-03T14:07:49.731Z,6.20
2019-05-03T14:10:19.716Z,8.20
2019-05-03T14:12:50.016Z,6.93
2019-05-03T14:15:20.528Z,8.00
2019-05-03T14:17:50.626Z,8.43
2019-05-03T14:20:41.580Z,10.10
2019-05-03T14:23:11.542Z,7.37
2019-05-03T14:25:41.395Z,7.87
2019-05-03T14:28:11.242Z,6.23
2019-05-03T14:30:41.302Z,7.13
2019-05-03T14:33:11.265Z,23.30
2019-05-03T14:35:41.153Z,9.90
2019-05-03T14:38:11.106Z,5.80
2019-05-03T14:40:41.348Z,7.70
2019-05-03T14:43:11.725Z,5.83
2019-05-03T14:45:41.693Z,7.40
2019-05-03T14:48:11.543Z,5.70
2019-05-03T14:50:41.435Z,5.10
2019-05-03T14:53:11.368Z,6.37
2019-05-03T15:36:54.689Z,7.30
2019-05-03T15:39:25.079Z,6.63
2019-05-03T15:41:55.033Z,6.67
2019-05-03T15:44:44.909Z,8.10
2019-05-03T15:47:20.095Z,6.23
2019-05-03T15:49:50.108Z,7.80
2019-05-03T15:52:19.949Z,5.73
2019-05-03T15:54:50.054Z,7.10
2019-05-03T15:57:19.919Z,6.30
2019-05-03T15:59:50.087Z,6.53
2019-05-03T16:02:20.211Z,6.60
2019-05-03T16:04:50.282Z,8.17
2019-05-03T16:07:20.683Z,6.43
2019-05-03T16:09:50.953Z,6.07
2019-05-03T16:12:21.083Z,7.00
2019-05-03T16:14:51.170Z,6.10
2019-05-03T16:17:21.176Z,5.57
2019-05-03T16:19:51.666Z,6.03
2019-05-03T16:22:21.511Z,5.40
2019-05-03T16:24:51.676Z,6.67
2019-05-03T16:27:42.255Z,5.83
2019-05-03T16:30:27.855Z,5.87
2019-05-03T16:32:58.011Z,5.93
2019-05-03T16:35:28.196Z,5.83
2019-05-03T16:37:58.073Z,15.17
2019-05-03T16:40:27.968Z,7.63
2019-05-03T16:42:57.893Z,6.80
2019-05-03T16:45:27.743Z,7.57
2019-05-03T16:47:57.699Z,6.30
2019-05-03T16:50:27.619Z,5.60
2019-05-03T16:52:57.490Z,6.50
2019-05-03T16:55:27.337Z,6.50
2019-05-03T16:57:57.422Z,18.77
2019-05-03T17:00:28.061Z,8.73
2019-05-03T17:02:57.932Z,12.37
2019-05-03T17:05:47.218Z,5.63
2019-05-03T17:08:51.215Z,6.43
2019-05-03T17:11:22.033Z,5.43
2019-05-03T17:13:51.930Z,6.70
2019-05-03T17:16:21.883Z,5.63
2019-05-03T17:18:51.812Z,5.90
2019-05-03T17:21:21.678Z,9.10
2019-05-03T17:23:51.710Z,5.40
2019-05-03T17:26:21.539Z,8.43
2019-05-03T17:31:48.811Z,7.57
2019-05-03T17:34:19.180Z,7.33
2019-05-03T17:36:49.278Z,7.70
2019-05-03T17:39:26.286Z,6.17
2019-05-03T17:42:05.346Z,6.50
2019-05-03T17:44:39.912Z,5.60
2019-05-03T17:47:09.670Z,8.03
2019-05-03T17:49:39.999Z,4.37
2019-05-03T17:52:29.111Z,6.27
2019-05-03T17:55:10.771Z,3.97
2019-05-03T17:57:55.317Z,5.47
2019-05-03T18:00:44.658Z,6.70
2019-05-03T18:03:15.262Z,4.20
2019-05-03T18:05:53.553Z,5.10
2019-05-03T18:08:50.352Z,5.13
2019-05-03T18:14:16.146Z,4.30
2019-05-03T18:16:52.568Z,4.73
2019-05-03T18:19:22.831Z,7.60
2019-05-03T18:21:53.118Z,4.30
2019-05-03T18:24:35.608Z,4.87
2019-05-03T18:27:03.945Z,5.17
2019-05-03T18:29:34.650Z,4.43
2019-05-03T18:32:05.476Z,4.33
2019-05-03T18:34:37.833Z,4.20
2019-05-03T18:37:07.851Z,7.23
2019-05-03T18:39:39.906Z,5.10
2019-05-03T18:42:13.580Z,7.23
2019-05-03T18:48:29.731Z,5.23
2019-05-03T18:54:48.931Z,5.93
2019-05-03T18:57:20.170Z,7.17
2019-05-03T19:00:35.170Z,6.20
2019-05-03T19:06:34.680Z,8.40
2019-05-03T19:09:28.513Z,6.13
2019-05-03T19:12:08.271Z,7.80
2019-05-03T19:14:38.226Z,7.00
2019-05-03T19:17:24.904Z,6.90
2019-05-03T19:20:17.343Z,7.00
2019-05-03T19:23:09.179Z,6.37
2019-05-03T19:25:46.978Z,4.50
2019-05-03T19:28:10.906Z,5.93
2019-05-03T19:30:44.419Z,5.20
2019-05-03T19:33:14.675Z,7.30
2019-05-03T19:35:44.766Z,7.90
2019-05-03T19:38:15.205Z,7.07
2019-05-03T19:40:45.414Z,5.90
2019-05-03T19:43:20.518Z,6.23
2019-05-03T19:45:50.963Z,7.53
2019-05-03T19:48:21.350Z,6.63
2019-05-03T19:50:51.310Z,6.27
2019-05-03T19:53:40.188Z,6.80
2019-05-03T19:56:10.374Z,11.10
2019-05-03T19:58:40.378Z,5.80
2019-05-03T20:01:35.283Z,6.07
2019-05-03T20:04:15.782Z,5.83
2019-05-03T20:06:53.437Z,8.20
2019-05-03T20:09:24.528Z,6.30
2019-05-03T20:11:55.320Z,5.27
2019-05-03T20:14:25.848Z,8.00
2019-05-03T20:16:55.732Z,6.80
2019-05-03T20:19:25.854Z,7.00
2019-05-03T20:21:56.653Z,7.00
2019-05-03T20:24:26.762Z,6.03
2019-05-03T20:26:56.753Z,7.27
2019-05-03T20:29:26.689Z,12.40
2019-05-03T20:31:56.545Z,6.60
2019-05-03T20:34:28.807Z,7.00
2019-05-03T20:37:00.791Z,6.53
2019-05-03T20:39:31.275Z,7.53
2019-05-03T20:42:01.521Z,9.63
2019-05-03T20:44:54.477Z,6.57
2019-05-03T20:47:34.829Z,6.13
2019-05-03T20:50:16.163Z,6.27
2019-05-03T20:52:46.626Z,7.13
2019-05-03T20:55:19.634Z,5.63
2019-05-03T20:57:49.754Z,4.43
2019-05-03T21:00:25.425Z,6.20
2019-05-03T21:02:57.392Z,5.93
2019-05-03T21:05:31.261Z,5.40
2019-05-03T21:07:59.387Z,4.23
2019-05-03T21:10:29.667Z,4.37
2019-05-03T21:13:00.100Z,4.00
2019-05-03T21:15:51.684Z,4.57
2019-05-03T21:18:31.261Z,4.60
2019-05-03T21:21:08.543Z,4.23
2019-05-03T21:23:45.470Z,4.20
2019-05-03T21:26:16.565Z,5.40
2019-05-03T21:28:49.370Z,4.73
2019-05-03T21:31:38.399Z,8.33
2019-05-03T21:34:08.710Z,5.23
2019-05-03T21:36:38.670Z,5.70
2019-05-03T21:39:08.514Z,5.40
2019-05-03T21:41:57.822Z,5.90
2019-05-03T21:44:34.820Z,5.70
2019-05-03T21:47:16.006Z,6.67
2019-05-03T21:49:46.337Z,4.83
2019-05-03T21:52:16.590Z,5.10
2019-05-03T21:54:46.669Z,5.53
2019-05-03T21:57:16.886Z,4.67
2019-05-03T21:59:47.311Z,5.50
2019-05-03T22:02:17.872Z,5.00
2019-05-03T22:04:48.338Z,6.13
2019-05-03T22:07:20.410Z,6.60
2019-05-03T22:10:09.915Z,4.90
2019-05-03T22:12:40.043Z,4.37
2019-05-03T22:15:23.527Z,5.30
2019-05-03T22:18:10.858Z,6.40
2019-05-03T22:21:05.416Z,15.20
2019-05-03T22:23:45.359Z,5.57
2019-05-03T22:26:40.757Z,5.00
2019-05-03T22:29:11.097Z,5.87
2019-05-03T22:32:00.926Z,7.53
2019-05-03T22:34:30.785Z,6.73
2019-05-03T22:37:00.759Z,5.93
2019-05-03T22:39:31.259Z,4.43
2019-05-03T22:42:01.425Z,4.60
2019-05-03T22:44:32.172Z,5.03
2019-05-03T22:47:02.205Z,5.70
2019-05-03T22:49:32.179Z,5.67
2019-05-03T22:52:02.087Z,4.50
2019-05-03T22:54:32.062Z,5.73
2019-05-03T22:57:06.174Z,6.15
2019-05-03T22:59:55.327Z,5.70
2019-05-03T23:02:25.236Z,6.10
2019-05-03T23:04:55.540Z,5.53
2019-05-03T23:07:26.091Z,6.13
2019-05-03T23:09:55.862Z,6.20
2019-05-03T23:12:25.705Z,6.53
2019-05-03T23:14:55.442Z,7.10
2019-05-03T23:17:25.557Z,5.93
2019-05-03T23:20:07.788Z,5.80
2019-05-03T23:22:37.682Z,7.43
2019-05-03T23:25:07.544Z,7.27
2019-05-03T23:27:37.962Z,5.83
2019-05-03T23:30:26.890Z,6.70
2019-05-03T23:32:56.771Z,7.95
2019-05-03T23:35:26.771Z,7.07
2019-05-03T23:37:56.805Z,5.87
2019-05-03T23:40:26.639Z,6.90
2019-05-03T23:42:56.853Z,5.27
2019-05-03T23:45:26.883Z,7.17
2019-05-03T23:47:57.462Z,6.60
2019-05-03T23:50:27.446Z,6.40
2019-05-03T23:52:57.524Z,7.77
2019-05-03T23:55:49.438Z,7.10
2019-05-03T23:58:19.597Z,6.93
